Araucaria, Brazil
Current Conditions -  °F | °C
As of 6:00 AM on Sunday 26 Oct 2014 (Local Time) from SBCT Reporting Station
Haze Haze  
Wind Chill: 63°   Ceiling: 100
Heat Index: 63°   Visibility: 1.8mi
Dew Point: 61°   Wind: 6mph
Humidity: 94%   Direction: 100°E
Pressure: 30.03"   Gusts: NA
Location:  25.58°S, 49.4°W
Report Text: SBCT 260800Z 10005KT 3000 BR BKN001 OVC003 17/16 Q1017
Loading
Personal Weather Stations






























Interactive Weather Map New forecast layout! Learn more

10-Day Weather Forecast

Advertisements
Track Severe Weather on mobile